Time;durP1;ratioP1;P1;durP2;ratioP2;P2;SDS_P1;SDS_P2;PMS_P1;PMS_P2;Temp;Humidity;BMP_temperature;BMP_pressure;BME280_temperature;BME280_humidity;BME280_pressure;Samples;Min_cycle;Max_cycle;Signal;HPM_P1;HPM_P2
2023/10/20 00:02:00;;;;;;;18.27;10.17;;;;;;;12.39;74.11;96574.78;5007972;28;20632;-72
2023/10/20 00:04:28;;;;;;;14.20;9.00;;;;;;;12.50;74.19;96600.94;5007502;28;20261;-78
2023/10/20 00:06:55;;;;;;;19.70;10.43;;;;;;;12.52;74.23;96600.84;5006750;28;20252;-77
2023/10/20 00:09:22;;;;;;;15.50;9.67;;;;;;;12.32;73.76;96573.50;5008123;28;20310;-75
2023/10/20 00:11:51;;;;;;;20.30;11.07;;;;;;;12.53;73.52;96612.91;5006817;28;20229;-75
2023/10/20 00:14:18;;;;;;;18.27;10.37;;;;;;;12.61;73.36;96606.28;5007889;28;20251;-75
2023/10/20 00:16:45;;;;;;;19.37;10.17;;;;;;;12.46;74.01;96606.41;5005878;28;20288;-79
2023/10/20 00:19:12;;;;;;;17.10;10.10;;;;;;;12.39;73.87;96605.94;5007655;28;20212;-74
2023/10/20 00:21:39;;;;;;;15.17;9.40;;;;;;;12.54;72.83;96602.41;5006982;28;20264;-73
2023/10/20 00:24:06;;;;;;;19.00;10.03;;;;;;;12.33;73.14;96608.06;5007109;28;20186;-70
2023/10/20 00:26:34;;;;;;;15.53;9.77;;;;;;;12.26;73.74;96607.59;5008033;28;20250;-77
2023/10/20 00:29:01;;;;;;;18.63;10.83;;;;;;;12.04;73.79;96609.78;5006548;28;20209;-70
2023/10/20 00:31:29;;;;;;;16.10;9.67;;;;;;;12.07;74.38;96599.22;5007707;28;20642;-75
2023/10/20 00:33:57;;;;;;;17.47;10.10;;;;;;;12.02;74.26;96607.28;5006463;28;20201;-71
2023/10/20 00:36:24;;;;;;;17.40;10.27;;;;;;;12.08;73.09;96585.31;5018929;28;20209;-72
2023/10/20 00:38:51;;;;;;;15.17;9.53;;;;;;;12.17;73.03;96597.75;5015121;28;20194;-72
2023/10/20 00:41:18;;;;;;;18.87;10.10;;;;;;;12.23;72.33;96602.59;5015983;28;20286;-68
2023/10/20 00:43:45;;;;;;;15.93;9.90;;;;;;;12.00;73.10;96595.31;5016560;28;20200;-72
2023/10/20 00:46:14;;;;;;;20.90;10.37;;;;;;;11.73;74.29;96604.66;5011724;28;20192;-72
2023/10/20 00:48:42;;;;;;;20.63;11.27;;;;;;;11.80;74.38;96603.41;5007625;28;20258;-75
2023/10/20 00:51:09;;;;;;;19.33;11.47;;;;;;;11.84;74.47;96591.94;5005325;28;20727;-70
2023/10/20 00:53:38;;;;;;;21.27;10.93;;;;;;;11.90;73.69;96587.22;5006765;28;20235;-77
2023/10/20 00:56:06;;;;;;;17.93;11.60;;;;;;;11.96;73.44;96578.25;5006571;28;20195;-73
2023/10/20 00:58:33;;;;;;;19.90;10.40;;;;;;;11.99;73.33;96578.06;5007302;28;20198;-72
2023/10/20 01:01:04;;;;;;;15.40;9.40;;;;;;;11.99;73.01;96570.28;5007646;28;20191;-70
2023/10/20 01:03:33;;;;;;;16.60;10.77;;;;;;;11.84;73.59;96584.16;5006084;28;20668;-73
2023/10/20 01:06:03;;;;;;;18.93;10.27;;;;;;;11.81;73.64;96579.16;5006344;28;20307;-74
2023/10/20 01:08:30;;;;;;;16.17;9.30;;;;;;;11.78;73.79;96580.16;5009050;28;20238;-69
2023/10/20 01:10:58;;;;;;;17.23;10.37;;;;;;;11.82;74.15;96586.00;5016701;28;20228;-70
2023/10/20 01:13:25;;;;;;;19.83;11.07;;;;;;;11.57;74.54;96583.09;5015697;28;20610;-69
2023/10/20 01:15:53;;;;;;;18.30;10.13;;;;;;;11.52;75.01;96585.13;5015226;28;20223;-72
2023/10/20 01:18:21;;;;;;;14.60;9.47;;;;;;;11.34;75.41;96569.69;5015108;28;20209;-69
2023/10/20 01:20:48;;;;;;;17.93;10.53;;;;;;;11.62;74.33;96583.69;5007603;28;20284;-73
2023/10/20 01:23:16;;;;;;;18.50;10.47;;;;;;;11.77;73.80;96582.81;5007925;28;20596;-76
2023/10/20 01:25:43;;;;;;;18.90;10.10;;;;;;;11.40;74.54;96582.31;5004896;28;20216;-77
2023/10/20 01:28:10;;;;;;;15.20;9.33;;;;;;;11.33;75.43;96575.78;5008268;28;20232;-71
2023/10/20 01:30:38;;;;;;;14.97;9.03;;;;;;;11.39;75.46;96580.66;5009744;28;20263;-74
2023/10/20 01:33:06;;;;;;;18.80;10.70;;;;;;;11.37;76.90;96581.66;5010753;28;20207;-70
2023/10/20 01:35:34;;;;;;;15.37;9.10;;;;;;;11.43;76.13;96587.34;5010479;28;20680;-69
2023/10/20 01:38:03;;;;;;;15.40;9.10;;;;;;;11.58;75.59;96577.81;5009649;28;20199;-71
2023/10/20 01:40:31;;;;;;;16.27;10.20;;;;;;;11.32;77.12;96579.31;5010594;28;20204;-71
2023/10/20 01:42:59;;;;;;;17.90;9.67;;;;;;;10.92;77.82;96564.28;5007789;28;20202;-72
2023/10/20 01:45:26;;;;;;;20.23;9.67;;;;;;;10.87;79.29;96574.06;5010452;28;20297;-72
2023/10/20 01:47:54;;;;;;;15.57;9.17;;;;;;;10.71;80.06;96575.81;5009225;28;20467;-73
2023/10/20 01:50:23;;;;;;;16.63;9.33;;;;;;;10.78;79.73;96561.59;5010509;28;20644;-72
2023/10/20 01:52:50;;;;;;;15.03;9.17;;;;;;;10.74;79.54;96582.59;5010067;28;20654;-76
2023/10/20 01:55:17;;;;;;;16.37;9.33;;;;;;;10.71;80.19;96567.22;5009372;28;20193;-74
2023/10/20 01:57:45;;;;;;;16.30;8.70;;;;;;;10.56;80.66;96572.28;5010292;28;20649;-70
2023/10/20 02:00:16;;;;;;;18.93;10.17;;;;;;;10.54;80.99;96578.47;5007306;28;20623;-68
2023/10/20 02:02:44;;;;;;;21.33;10.70;;;;;;;10.32;82.58;96567.56;5009922;28;20677;-73
2023/10/20 02:05:12;;;;;;;15.77;9.27;;;;;;;10.45;82.60;96571.16;5008910;28;20203;-70
2023/10/20 02:07:39;;;;;;;18.20;9.53;;;;;;;10.45;82.56;96569.41;5009711;28;20219;-75
2023/10/20 02:10:06;;;;;;;14.43;9.27;;;;;;;10.46;82.38;96568.53;5024919;28;20205;-71
2023/10/20 02:12:35;;;;;;;18.00;9.50;;;;;;;10.33;83.31;96569.22;5022295;28;20306;-76
2023/10/20 02:15:06;;;;;;;16.73;9.67;;;;;;;10.33;83.87;96566.63;5028301;28;20247;-71
2023/10/20 02:17:35;;;;;;;18.97;9.90;;;;;;;10.32;83.10;96573.59;5028626;28;20213;-70
2023/10/20 02:20:03;;;;;;;20.00;10.13;;;;;;;10.35;83.12;96575.16;5028566;28;20198;-75
2023/10/20 02:22:31;;;;;;;18.50;9.27;;;;;;;10.25;83.14;96571.38;5026792;28;20198;-77
2023/10/20 02:24:58;;;;;;;16.27;9.57;;;;;;;10.15;83.69;96565.00;5029386;28;20212;-77
2023/10/20 02:27:28;;;;;;;15.33;9.30;;;;;;;10.03;83.89;96545.75;5028722;28;20234;-77
2023/10/20 02:29:58;;;;;;;21.00;10.23;;;;;;;10.14;83.51;96547.84;5028450;28;20698;-73
2023/10/20 02:32:25;;;;;;;17.57;10.40;;;;;;;9.98;84.13;96526.19;5027801;28;20681;-77
2023/10/20 02:34:53;;;;;;;21.47;11.33;;;;;;;10.27;83.81;96538.50;5026725;28;20200;-75
2023/10/20 02:37:20;;;;;;;19.27;10.50;;;;;;;10.42;83.35;96548.91;5028109;28;20700;-77
2023/10/20 02:39:47;;;;;;;19.93;10.63;;;;;;;10.47;83.56;96546.88;5026556;28;20200;-76
2023/10/20 02:42:14;;;;;;;19.27;10.47;;;;;;;10.64;82.66;96543.38;5028580;28;20245;-74
2023/10/20 02:44:41;;;;;;;15.50;9.93;;;;;;;10.73;82.11;96545.50;5028696;28;20210;-77
2023/10/20 02:47:08;;;;;;;19.13;11.03;;;;;;;10.77;82.54;96543.56;5026620;28;20197;-73
2023/10/20 02:49:35;;;;;;;17.20;10.17;;;;;;;10.89;81.18;96543.75;5011407;28;20240;-76
2023/10/20 02:52:02;;;;;;;19.00;10.43;;;;;;;11.06;80.85;96548.00;5027203;28;20284;-76
2023/10/20 02:54:30;;;;;;;18.13;9.93;;;;;;;11.17;79.51;96543.06;5029306;28;20212;-75
2023/10/20 02:56:58;;;;;;;18.17;9.70;;;;;;;11.20;79.49;96540.28;5027698;28;20195;-77
2023/10/20 02:59:25;;;;;;;16.70;10.20;;;;;;;11.20;79.27;96556.66;5029016;28;20280;-76
2023/10/20 03:01:55;;;;;;;15.00;9.60;;;;;;;11.16;79.31;96546.56;5027694;28;20291;-77
2023/10/20 03:04:23;;;;;;;19.37;10.60;;;;;;;11.18;79.28;96548.16;5026897;28;20284;-77
2023/10/20 03:06:51;;;;;;;15.97;9.47;;;;;;;11.29;78.39;96543.16;5028377;28;20207;-77
2023/10/20 03:09:18;;;;;;;21.37;10.80;;;;;;;11.35;78.51;96547.19;5027203;28;20232;-78
2023/10/20 03:11:47;;;;;;;16.33;10.30;;;;;;;11.33;78.54;96542.06;5043660;28;20203;-71
2023/10/20 03:14:14;;;;;;;18.73;10.07;;;;;;;11.48;78.07;96544.75;5027182;28;20238;-77
2023/10/20 03:16:45;;;;;;;20.07;10.33;;;;;;;11.39;77.92;96544.34;5011051;28;20206;-72
2023/10/20 03:19:12;;;;;;;18.20;9.57;;;;;;;11.39;77.77;96541.75;5006408;28;20228;-73
2023/10/20 03:21:39;;;;;;;16.53;10.07;;;;;;;11.36;77.45;96518.59;5008310;28;20204;-76
2023/10/20 03:24:06;;;;;;;20.60;9.20;;;;;;;11.22;77.06;96530.66;5008267;28;20209;-74
2023/10/20 03:26:34;;;;;;;18.47;10.23;;;;;;;11.26;76.92;96538.19;5004099;28;20583;-70
2023/10/20 03:29:01;;;;;;;20.57;10.47;;;;;;;11.24;76.84;96528.81;5007602;28;20232;-75
2023/10/20 03:31:28;;;;;;;19.57;10.93;;;;;;;11.20;77.88;96529.91;4997296;28;20199;-73
2023/10/20 03:33:55;;;;;;;17.87;10.13;;;;;;;11.23;76.91;96537.53;4990298;28;20209;-74
2023/10/20 03:36:23;;;;;;;17.47;9.60;;;;;;;11.24;77.36;96544.38;5003198;28;20732;-71
2023/10/20 03:38:50;;;;;;;20.63;8.93;;;;;;;11.06;77.38;96538.47;5007918;28;20249;-76
2023/10/20 03:41:17;;;;;;;18.53;10.00;;;;;;;11.01;77.86;96543.06;5008356;28;20297;-76
2023/10/20 03:43:44;;;;;;;21.50;9.80;;;;;;;11.03;77.75;96543.81;5002156;28;20591;-72
2023/10/20 03:46:13;;;;;;;20.90;10.33;;;;;;;11.09;77.14;96534.84;4995810;28;20208;-73
2023/10/20 03:48:41;;;;;;;20.53;11.03;;;;;;;10.92;77.18;96542.75;4996594;28;20339;-71
2023/10/20 03:51:11;;;;;;;23.77;11.53;;;;;;;10.96;77.91;96534.72;4987863;28;20206;-72
2023/10/20 03:53:50;;;;;;;20.73;10.83;;;;;;;11.06;77.35;96533.28;4995245;28;20289;-72
2023/10/20 03:56:22;;;;;;;23.63;11.40;;;;;;;11.10;77.40;96542.56;4998227;28;20200;-69
2023/10/20 03:58:52;;;;;;;14.40;8.53;;;;;;;11.16;77.38;96547.41;5005592;28;20208;-77
2023/10/20 04:01:19;;;;;;;25.90;11.93;;;;;;;11.15;77.34;96540.53;5006691;28;20192;-69
2023/10/20 04:03:50;;;;;;;26.33;11.47;;;;;;;11.20;77.22;96542.88;5006481;28;20594;-70
2023/10/20 04:06:28;;;;;;;25.43;10.57;;;;;;;11.24;76.39;96540.03;4989738;28;20196;-70
2023/10/20 04:08:57;;;;;;;18.70;9.10;;;;;;;11.01;75.95;96535.28;4996064;28;20227;-75
2023/10/20 04:11:25;;;;;;;20.23;9.63;;;;;;;10.96;76.42;96539.91;4995989;28;20291;-69
2023/10/20 04:13:52;;;;;;;23.37;11.47;;;;;;;10.88;76.18;96541.25;4988742;28;20225;-72
2023/10/20 04:16:20;;;;;;;17.70;9.73;;;;;;;10.64;77.00;96543.38;4987864;28;20279;-73
2023/10/20 04:18:48;;;;;;;23.00;11.17;;;;;;;10.64;77.35;96543.38;5003833;28;20324;-71
2023/10/20 04:21:15;;;;;;;23.27;10.57;;;;;;;10.52;78.09;96539.72;5007880;28;20192;-70
2023/10/20 04:23:45;;;;;;;21.03;10.37;;;;;;;10.67;77.75;96538.06;5006095;28;20663;-72
2023/10/20 04:26:20;;;;;;;19.40;10.00;;;;;;;10.79;77.70;96536.56;5003886;28;20220;-72
2023/10/20 04:29:07;;;;;;;18.90;9.10;;;;;;;10.80;77.64;96541.63;5006845;28;20757;-69
2023/10/20 04:43:33;;;;;;;25.10;11.67;;;;;;;10.72;76.13;96548.16;4997626;28;20246;-70
2023/10/20 04:46:56;;;;;;;23.83;11.60;;;;;;;10.68;77.30;96537.13;5004771;28;20231;-69
2023/10/20 04:54:07;;;;;;;23.87;11.90;;;;;;;10.84;76.70;96548.31;4991723;28;20187;-69
2023/10/20 04:56:38;;;;;;;40.97;16.87;;;;;;;10.94;75.75;96538.31;4993609;28;20695;-74
2023/10/20 04:59:10;;;;;;;23.93;11.70;;;;;;;10.96;75.61;96541.66;5004984;28;20189;-74
2023/10/20 05:01:47;;;;;;;32.70;13.57;;;;;;;11.20;75.21;96542.88;5006291;28;20200;-73
2023/10/20 05:04:36;;;;;;;25.87;12.83;;;;;;;11.08;75.14;96534.03;5009222;28;20195;-76
2023/10/20 05:07:05;;;;;;;31.47;15.40;;;;;;;11.10;75.11;96567.63;5009574;28;20708;-70
2023/10/20 05:09:35;;;;;;;29.33;13.93;;;;;;;11.08;75.26;96554.75;5010907;28;20239;-74
2023/10/20 05:12:03;;;;;;;20.70;11.90;;;;;;;10.97;74.16;96551.91;4992350;28;20198;-71
2023/10/20 05:14:30;;;;;;;26.30;13.03;;;;;;;10.87;75.26;96560.28;5010002;28;20262;-74
2023/10/20 05:16:57;;;;;;;23.93;11.93;;;;;;;10.77;75.86;96557.34;5010929;28;20208;-73
2023/10/20 05:19:25;;;;;;;41.07;14.07;;;;;;;10.91;75.09;96552.25;5009381;28;20195;-76
2023/10/20 05:21:53;;;;;;;31.17;14.00;;;;;;;10.93;75.20;96568.56;5010749;28;20715;-74
2023/10/20 05:24:20;;;;;;;33.23;13.10;;;;;;;11.03;74.42;96567.13;5009255;28;20201;-76
2023/10/20 05:26:47;;;;;;;24.87;12.83;;;;;;;10.89;75.65;96548.91;5010493;28;20195;-76
2023/10/20 05:29:14;;;;;;;21.83;10.90;;;;;;;11.00;75.34;96556.94;5026790;28;20222;-76
2023/10/20 05:31:42;;;;;;;27.27;11.90;;;;;;;11.04;75.00;96537.72;5028338;28;20285;-71
2023/10/20 05:34:09;;;;;;;21.53;11.40;;;;;;;11.37;75.18;96551.34;5029965;28;20202;-69
2023/10/20 05:36:36;;;;;;;28.17;12.63;;;;;;;11.46;74.94;96532.69;5028466;28;20598;-74
2023/10/20 05:39:03;;;;;;;27.77;12.47;;;;;;;11.63;74.96;96538.66;5044876;28;20204;-70
2023/10/20 05:41:30;;;;;;;23.63;11.97;;;;;;;11.80;74.01;96548.94;5028128;28;20622;-75
2023/10/20 05:43:58;;;;;;;22.20;10.50;;;;;;;11.63;75.63;96552.47;5029605;28;20196;-74
2023/10/20 05:46:25;;;;;;;19.10;9.63;;;;;;;11.58;75.83;96543.28;5028668;28;20205;-77
2023/10/20 05:48:52;;;;;;;20.47;10.93;;;;;;;11.48;76.76;96533.44;5029623;28;20668;-74
2023/10/20 05:51:21;;;;;;;19.80;10.10;;;;;;;11.58;75.83;96544.09;5029222;28;20695;-77
2023/10/20 05:53:48;;;;;;;23.90;11.47;;;;;;;11.66;75.95;96543.69;5028263;28;20193;-71
2023/10/20 05:56:15;;;;;;;30.07;14.00;;;;;;;11.84;75.14;96540.03;5017801;28;20211;-70
2023/10/20 05:58:42;;;;;;;26.47;11.77;;;;;;;12.16;74.34;96544.16;4999268;28;20203;-72
2023/10/20 06:01:09;;;;;;;23.87;10.33;;;;;;;12.02;74.89;96549.34;4990184;28;20706;-71
2023/10/20 06:03:37;;;;;;;35.03;17.47;;;;;;;12.13;74.61;96541.75;5008929;28;20607;-69
2023/10/20 06:06:05;;;;;;;23.37;11.30;;;;;;;12.16;74.46;96541.56;5027872;28;20205;-69
2023/10/20 06:08:33;;;;;;;19.87;9.87;;;;;;;12.14;74.38;96540.81;5028639;28;20729;-75
2023/10/20 06:11:02;;;;;;;23.00;10.77;;;;;;;12.21;74.94;96555.94;5028076;28;20185;-73
2023/10/20 06:13:35;;;;;;;21.00;10.50;;;;;;;12.05;75.01;96523.22;5028502;28;20715;-79
2023/10/20 06:16:10;;;;;;;24.27;11.37;;;;;;;12.21;75.16;96566.34;5026422;28;20628;-71
2023/10/20 06:18:40;;;;;;;27.13;11.67;;;;;;;12.37;75.23;96566.22;5028492;28;20204;-71
2023/10/20 06:21:16;;;;;;;22.87;11.07;;;;;;;12.40;75.74;96555.69;5027891;28;20191;-69
2023/10/20 06:23:45;;;;;;;26.10;11.17;;;;;;;12.49;75.50;96560.28;5027929;28;20202;-75
2023/10/20 06:26:13;;;;;;;16.63;8.93;;;;;;;12.62;75.47;96571.63;5028722;28;20202;-70
2023/10/20 06:28:41;;;;;;;23.57;11.07;;;;;;;12.91;74.54;96575.84;5025567;28;20233;-68
2023/10/20 06:34:23;;;;;;;26.97;11.40;;;;;;;13.31;73.34;96561.22;5026831;28;20245;-74
2023/10/20 06:36:46;;;;;;;26.37;11.57;;;;;;;13.40;73.24;96563.19;5028237;28;20208;-71
2023/10/20 06:39:15;;;;;;;24.70;12.70;;;;;;;13.53;72.54;96555.44;5019245;28;20196;-68
2023/10/20 06:41:42;;;;;;;30.93;13.10;;;;;;;13.77;72.39;96564.22;5007223;28;20209;-72
2023/10/20 06:44:19;;;;;;;26.83;12.27;;;;;;;14.01;71.20;96578.25;5008542;28;20342;-70
2023/10/20 06:46:47;;;;;;;31.50;13.70;;;;;;;14.14;70.29;96573.03;5007372;28;20203;-71
2023/10/20 06:49:18;;;;;;;38.43;12.87;;;;;;;14.19;70.13;96577.00;5008483;28;20226;-72
2023/10/20 06:51:47;;;;;;;26.30;11.67;;;;;;;14.21;69.80;96559.50;5007711;28;20582;-72
2023/10/20 06:54:16;;;;;;;32.23;12.13;;;;;;;13.99;70.29;96559.31;5007816;28;20199;-71
2023/10/20 06:56:44;;;;;;;27.27;11.83;;;;;;;14.13;70.51;96582.63;5006896;28;20289;-70
2023/10/20 06:59:15;;;;;;;33.03;12.67;;;;;;;14.40;69.62;96559.97;5006541;28;20694;-71
2023/10/20 07:01:43;;;;;;;33.07;12.53;;;;;;;14.69;69.12;96576.19;5006872;28;20193;-73
2023/10/20 07:04:12;;;;;;;26.47;11.87;;;;;;;14.85;67.93;96575.94;5005169;28;20195;-70
2023/10/20 07:06:45;;;;;;;22.23;10.27;;;;;;;13.67;67.88;96362.81;5008026;28;20187;-73
2023/10/20 07:09:13;;;;;;;28.10;11.57;;;;;;;15.17;67.11;96583.16;5007543;28;20227;-75
2023/10/20 07:11:42;;;;;;;28.00;11.17;;;;;;;15.18;66.79;96584.84;5006107;28;20291;-69
2023/10/20 07:14:10;;;;;;;25.53;11.43;;;;;;;15.24;66.63;96583.56;5008118;28;20732;-76
2023/10/20 07:16:37;;;;;;;33.87;12.57;;;;;;;15.26;66.17;96566.88;5006051;28;20203;-71
2023/10/20 07:19:04;;;;;;;35.07;12.33;;;;;;;15.15;67.05;96571.16;5006357;28;20206;-74
2023/10/20 07:21:32;;;;;;;30.47;12.07;;;;;;;15.22;66.70;96569.81;5006400;28;20204;-73
2023/10/20 07:23:59;;;;;;;29.80;13.73;;;;;;;15.18;66.28;96531.84;5008328;28;20230;-71
2023/10/20 07:26:26;;;;;;;29.40;12.03;;;;;;;15.39;66.27;96567.63;5006959;28;20323;-71
2023/10/20 07:28:54;;;;;;;27.30;11.20;;;;;;;15.58;65.60;96566.34;5007425;28;20215;-69
2023/10/20 07:31:21;;;;;;;16.57;8.30;;;;;;;15.54;66.24;96572.75;5006678;28;20655;-71
2023/10/20 07:33:49;;;;;;;25.87;11.43;;;;;;;15.35;66.35;96570.59;5007286;28;20299;-70
2023/10/20 07:36:16;;;;;;;39.80;14.00;;;;;;;15.64;65.86;96561.50;5008809;28;20563;-71
2023/10/20 07:38:44;;;;;;;38.17;14.40;;;;;;;15.75;65.25;96555.47;5006574;28;20284;-72
2023/10/20 07:41:12;;;;;;;34.20;13.53;;;;;;;15.92;64.39;96555.91;5004879;28;20273;-69
2023/10/20 07:43:45;;;;;;;34.37;12.90;;;;;;;16.10;63.61;96559.75;5005492;28;20278;-69
2023/10/20 07:46:16;;;;;;;31.33;12.03;;;;;;;16.19;63.60;96556.47;4980021;28;20215;-69
2023/10/20 07:48:44;;;;;;;28.47;12.40;;;;;;;16.24;63.43;96564.75;5003075;28;20206;-72
2023/10/20 07:51:11;;;;;;;40.30;15.40;;;;;;;16.35;62.71;96563.13;5005718;28;20553;-72
2023/10/20 07:53:39;;;;;;;28.67;12.30;;;;;;;16.48;62.78;96556.00;5005939;28;20243;-72
2023/10/20 07:56:06;;;;;;;28.30;11.97;;;;;;;16.55;62.10;96552.81;4985692;28;20202;-70
2023/10/20 07:58:33;;;;;;;33.40;12.77;;;;;;;16.67;61.65;96544.03;4994356;28;20221;-71
2023/10/20 08:01:00;;;;;;;32.40;12.33;;;;;;;16.74;61.74;96549.63;5005385;28;20206;-71
2023/10/20 08:03:28;;;;;;;30.00;12.83;;;;;;;16.69;61.37;96543.94;4998192;28;20584;-75
2023/10/20 08:05:56;;;;;;;31.30;12.47;;;;;;;16.69;60.91;96528.25;4987140;28;20287;-69
2023/10/20 08:08:23;;;;;;;36.93;14.63;;;;;;;17.04;61.11;96539.38;4988827;28;20202;-74
2023/10/20 08:10:51;;;;;;;57.63;42.90;;;;;;;17.14;60.05;96548.16;4987454;28;20233;-75
2023/10/20 08:13:22;;;;;;;52.13;32.73;;;;;;;17.04;59.79;96542.00;4989599;28;20303;-72
2023/10/20 08:15:49;;;;;;;43.97;13.23;;;;;;;16.98;59.51;96513.72;5006143;28;20196;-75
2023/10/20 08:18:16;;;;;;;25.93;10.50;;;;;;;17.23;59.69;96536.94;5005608;28;20206;-77
2023/10/20 08:20:44;;;;;;;29.70;11.50;;;;;;;17.37;59.05;96534.03;4988054;28;20278;-72
2023/10/20 08:23:11;;;;;;;23.93;9.70;;;;;;;17.43;58.44;96522.25;4989569;28;20196;-71
2023/10/20 08:25:38;;;;;;;52.90;47.60;;;;;;;17.36;58.44;96532.41;5011043;28;20216;-72
2023/10/20 08:28:07;;;;;;;34.57;12.97;;;;;;;17.49;58.02;96517.41;5015437;28;20207;-72
2023/10/20 08:30:35;;;;;;;40.63;16.43;;;;;;;17.64;58.38;96537.06;5014537;28;20299;-74
2023/10/20 08:33:03;;;;;;;48.13;17.77;;;;;;;17.79;57.75;96530.59;5014679;28;20192;-72
2023/10/20 08:35:31;;;;;;;31.03;12.67;;;;;;;17.72;57.39;96524.19;5012523;28;20239;-70
2023/10/20 08:37:58;;;;;;;37.10;13.73;;;;;;;17.78;57.73;96534.16;5013238;28;20199;-73
2023/10/20 08:40:32;;;;;;;29.43;11.10;;;;;;;18.02;57.42;96535.72;5031723;28;20212;-73
2023/10/20 08:43:02;;;;;;;26.17;10.87;;;;;;;17.87;57.29;96527.31;5025623;28;20197;-77
2023/10/20 08:45:32;;;;;;;31.57;12.80;;;;;;;18.07;57.31;96539.63;5006677;28;20348;-73
2023/10/20 08:48:02;;;;;;;33.13;13.43;;;;;;;18.14;56.78;96534.69;5003835;28;20634;-76
2023/10/20 08:50:31;;;;;;;38.80;13.67;;;;;;;17.46;57.50;96465.25;4987551;28;20247;-79
2023/10/20 08:53:04;;;;;;;26.80;10.63;;;;;;;18.17;57.67;96521.31;4985609;28;20202;-74
2023/10/20 08:55:31;;;;;;;54.43;20.87;;;;;;;18.36;58.95;96529.31;5025562;28;20220;-78
2023/10/20 08:57:58;;;;;;;57.37;21.40;;;;;;;18.42;57.80;96526.16;5024869;28;20215;-77
2023/10/20 09:00:25;;;;;;;105.30;41.63;;;;;;;18.68;59.09;96527.41;5024163;28;20197;-75
2023/10/20 09:02:59;;;;;;;51.37;20.10;;;;;;;18.90;57.33;96531.66;5024583;28;20210;-76
2023/10/20 09:05:27;;;;;;;73.80;25.50;;;;;;;18.88;56.44;96529.13;5023317;28;20831;-75
2023/10/20 09:07:55;;;;;;;71.17;23.50;;;;;;;19.12;55.55;96529.66;5026093;28;20197;-77
2023/10/20 09:10:24;;;;;;;97.37;31.77;;;;;;;19.12;55.27;96519.13;5023820;28;20256;-75
2023/10/20 09:12:51;;;;;;;78.43;25.60;;;;;;;19.18;55.70;96529.09;5024958;28;20189;-74
2023/10/20 09:15:18;;;;;;;73.10;53.73;;;;;;;19.28;55.09;96521.22;5024608;28;20222;-72
2023/10/20 09:17:53;;;;;;;267.60;106.47;;;;;;;19.42;56.11;96520.88;5024761;28;20244;-74
2023/10/20 09:20:20;;;;;;;131.63;118.47;;;;;;;19.17;54.64;96487.22;5027136;28;20193;-79
2023/10/20 09:22:48;;;;;;;85.50;38.60;;;;;;;19.53;54.58;96525.16;5024474;28;20208;-78
2023/10/20 09:25:16;;;;;;;52.23;18.77;;;;;;;19.72;53.85;96519.91;5025283;28;20198;-76
2023/10/20 09:27:46;;;;;;;46.03;21.87;;;;;;;19.78;53.65;96520.19;5023039;28;20209;-74
2023/10/20 09:30:15;;;;;;;31.50;12.87;;;;;;;19.78;53.36;96522.00;5024839;28;20321;-71
2023/10/20 09:32:42;;;;;;;31.73;11.50;;;;;;;19.91;52.70;96517.25;5025518;28;20194;-75
2023/10/20 09:35:10;;;;;;;30.03;11.07;;;;;;;19.92;52.38;96482.97;5024415;28;20198;-75
2023/10/20 09:37:40;;;;;;;22.13;9.37;;;;;;;20.10;52.56;96512.81;5025779;28;20194;-73
2023/10/20 09:40:09;;;;;;;26.77;10.30;;;;;;;20.07;52.38;96492.06;5022466;28;20305;-75
2023/10/20 09:42:59;;;;;;;29.67;11.07;;;;;;;20.26;51.74;96505.19;5040330;28;20705;-74
2023/10/20 09:45:43;;;;;;;22.87;9.50;;;;;;;20.43;52.03;96503.63;5024880;28;20228;-77
2023/10/20 09:48:19;;;;;;;34.77;12.30;;;;;;;20.56;51.33;96506.78;5023873;28;20277;-71
2023/10/20 09:50:49;;;;;;;24.17;8.83;;;;;;;20.40;51.45;96471.53;5026478;28;20223;-75
2023/10/20 09:53:19;;;;;;;27.80;10.47;;;;;;;20.65;51.21;96492.75;5027387;28;20261;-77
2023/10/20 09:55:47;;;;;;;28.53;10.97;;;;;;;20.71;51.04;96497.41;4999503;28;20208;-72
2023/10/20 09:58:24;;;;;;;28.23;9.97;;;;;;;20.82;50.69;96494.59;4988686;28;20196;-78
2023/10/20 10:00:51;;;;;;;26.20;9.73;;;;;;;20.91;50.24;96488.47;5008085;28;20556;-74
2023/10/20 10:03:37;;;;;;;22.17;9.03;;;;;;;21.20;50.02;96508.56;5009217;28;20192;-74
2023/10/20 10:06:24;;;;;;;14.83;7.07;;;;;;;21.06;49.95;96487.00;5006140;28;20217;-72
2023/10/20 10:08:53;;;;;;;13.37;7.23;;;;;;;21.11;49.58;96498.91;5008888;28;20269;-79
2023/10/20 10:11:26;;;;;;;10.23;7.03;;;;;;;21.05;50.37;96490.63;5007530;28;20233;-80
2023/10/20 10:13:55;;;;;;;14.93;7.93;;;;;;;21.23;49.51;96488.03;5008105;28;20219;-76
2023/10/20 10:16:22;;;;;;;12.77;7.33;;;;;;;21.33;49.37;96487.97;5008558;28;20259;-77
2023/10/20 10:18:50;;;;;;;13.60;6.90;;;;;;;21.49;49.04;96480.22;5007634;28;20241;-76
2023/10/20 10:21:32;;;;;;;8.70;6.40;;;;;;;21.46;48.53;96462.91;5008562;28;20201;-71
2023/10/20 10:24:16;;;;;;;8.30;5.80;;;;;;;21.58;48.49;96481.94;5007660;28;20201;-73
2023/10/20 10:26:44;;;;;;;7.70;5.00;;;;;;;21.40;48.29;96468.78;5008043;28;20284;-71
2023/10/20 10:29:11;;;;;;;7.83;5.97;;;;;;;21.41;48.68;96462.50;5008478;28;20212;-71
2023/10/20 10:31:42;;;;;;;12.20;5.30;;;;;;;21.53;48.40;96463.97;5007118;28;20226;-73
2023/10/20 10:34:25;;;;;;;9.07;5.30;;;;;;;21.68;47.98;96440.50;5008485;28;20184;-73
2023/10/20 10:36:54;;;;;;;11.20;5.67;;;;;;;21.84;48.04;96456.50;5007700;28;20272;-73
2023/10/20 10:39:23;;;;;;;13.00;5.57;;;;;;;21.88;48.06;96469.19;5008519;28;20190;-71
2023/10/20 10:41:52;;;;;;;8.20;5.43;;;;;;;22.05;47.71;96458.81;5007486;28;20199;-69
2023/10/20 10:44:21;;;;;;;10.37;6.70;;;;;;;22.17;47.06;96458.38;5007268;28;20300;-72
2023/10/20 10:46:49;;;;;;;10.40;5.70;;;;;;;22.17;46.92;96453.13;5007792;28;20246;-71
2023/10/20 10:49:16;;;;;;;14.77;6.80;;;;;;;22.36;46.94;96462.63;5006797;28;20738;-70
2023/10/20 10:51:46;;;;;;;11.03;6.43;;;;;;;22.38;46.80;96452.75;5008043;28;20222;-72
2023/10/20 10:54:17;;;;;;;12.80;5.50;;;;;;;22.43;46.70;96453.09;5007102;28;20190;-79
2023/10/20 10:56:45;;;;;;;15.17;6.17;;;;;;;22.40;46.69;96445.50;5008160;28;20236;-71
2023/10/20 10:59:12;;;;;;;9.40;5.70;;;;;;;22.59;46.04;96443.47;5005821;28;20198;-75
2023/10/20 11:01:40;;;;;;;12.97;5.33;;;;;;;22.47;46.96;96447.34;5006990;28;20562;-74
2023/10/20 11:04:10;;;;;;;7.73;5.47;;;;;;;22.50;46.13;96444.38;5007667;28;20651;-71
2023/10/20 11:06:38;;;;;;;13.33;6.23;;;;;;;22.62;46.72;96427.31;5006617;28;20369;-74
2023/10/20 11:09:08;;;;;;;16.40;6.80;;;;;;;22.64;46.63;96448.28;5007930;28;20585;-72
2023/10/20 11:11:39;;;;;;;9.40;5.93;;;;;;;22.38;46.37;96424.53;5006449;28;20277;-74
2023/10/20 11:14:06;;;;;;;9.00;6.87;;;;;;;22.50;46.53;96439.09;5006327;28;20219;-74
2023/10/20 11:16:36;;;;;;;8.20;4.97;;;;;;;22.65;46.32;96436.72;5005485;28;20200;-71
2023/10/20 11:19:04;;;;;;;11.67;6.73;;;;;;;22.71;46.47;96435.28;5005916;28;20198;-73
2023/10/20 11:21:51;;;;;;;12.20;4.93;;;;;;;22.65;46.07;96415.59;4988640;28;20639;-77
2023/10/20 11:24:34;;;;;;;11.73;5.50;;;;;;;22.82;46.09;96434.97;4988551;28;20241;-72
2023/10/20 11:27:05;;;;;;;12.33;8.30;;;;;;;22.93;45.78;96434.69;5007587;28;20197;-76
2023/10/20 11:29:32;;;;;;;13.40;5.43;;;;;;;23.02;45.30;96431.09;5007179;28;20244;-79
2023/10/20 11:32:18;;;;;;;13.90;6.30;;;;;;;22.92;45.32;96369.63;5006471;28;20219;-76
2023/10/20 11:34:45;;;;;;;10.03;5.90;;;;;;;23.23;44.82;96420.88;5008107;28;20194;-74
2023/10/20 11:37:14;;;;;;;12.67;5.77;;;;;;;23.09;45.20;96432.06;5006304;28;20198;-74
2023/10/20 11:39:42;;;;;;;16.47;6.57;;;;;;;23.26;45.14;96420.56;5007758;28;20198;-73
2023/10/20 11:42:11;;;;;;;7.20;4.90;;;;;;;23.15;44.84;96423.50;5006169;28;20237;-74
2023/10/20 11:44:39;;;;;;;8.57;4.77;;;;;;;23.20;44.97;96418.56;5007052;28;20205;-71
2023/10/20 11:47:06;;;;;;;10.80;4.67;;;;;;;23.23;44.92;96418.22;5006972;28;20186;-72
2023/10/20 11:49:33;;;;;;;6.43;4.80;;;;;;;23.09;45.22;96389.81;5004736;28;20192;-75